Time;durP1;ratioP1;P1;durP2;ratioP2;P2;SDS_P1;SDS_P2;PMS_P1;PMS_P2;Temp;Humidity;BMP_temperature;BMP_pressure;BME280_temperature;BME280_humidity;BME280_pressure;Samples;Min_cycle;Max_cycle;Signal;HPM_P1;HPM_P2
2022/01/06 00:00:35;;;;;;;0.20;0.20;;;;;;;23.94;13.38;97761.31;5053202;28;20079;-68
2022/01/06 00:03:01;;;;;;;0.30;0.30;;;;;;;23.93;13.58;97758.91;5052783;28;20029;-68
2022/01/06 00:05:26;;;;;;;0.35;0.35;;;;;;;23.93;13.38;97759.69;5053201;28;20107;-67
2022/01/06 00:07:52;;;;;;;0.30;0.30;;;;;;;23.92;13.40;97758.13;5053176;28;20028;-67
2022/01/06 00:10:18;;;;;;;0.30;0.30;;;;;;;23.93;13.56;97769.81;5053577;28;20029;-67
2022/01/06 00:13:02;;;;;;;0.30;0.30;;;;;;;23.94;13.51;97766.75;5052807;28;20494;-67
2022/01/06 00:25:57;;;;;;;0.30;0.30;;;;;;;23.91;13.36;97772.88;5058232;28;20029;-68
2022/01/06 00:28:22;;;;;;;0.30;0.30;;;;;;;23.89;13.62;97769.72;5057904;28;20067;-68
2022/01/06 00:30:48;;;;;;;0.30;0.30;;;;;;;23.90;13.40;97767.78;5070429;28;20085;-67
2022/01/06 00:33:13;;;;;;;0.20;0.20;;;;;;;23.87;13.73;97763.81;5077714;28;20463;-67
2022/01/06 00:35:39;;;;;;;0.30;0.30;;;;;;;23.85;13.46;97762.53;5076831;28;20029;-67
2022/01/06 00:38:08;;;;;;;0.30;0.30;;;;;;;23.81;13.37;97768.66;5076542;28;20021;-67
2022/01/06 00:40:36;;;;;;;0.30;0.30;;;;;;;23.78;13.59;97769.34;5077296;28;20071;-67
2022/01/06 00:43:04;;;;;;;0.30;0.30;;;;;;;23.82;13.47;97772.22;5076871;28;20035;-67
2022/01/06 00:45:30;;;;;;;0.28;0.28;;;;;;;23.78;13.58;97780.25;5076405;28;20025;-67
2022/01/06 00:47:55;;;;;;;0.30;0.30;;;;;;;23.78;13.50;97777.50;5076063;28;20507;-67
2022/01/06 00:50:20;;;;;;;0.32;0.32;;;;;;;23.74;13.74;97773.84;5076425;28;20036;-67
2022/01/06 00:52:46;;;;;;;0.30;0.30;;;;;;;23.76;13.68;97782.47;5075314;28;20478;-67
2022/01/06 00:55:11;;;;;;;0.20;0.20;;;;;;;23.75;13.84;97785.53;5076539;28;20169;-67
2022/01/06 00:57:37;;;;;;;0.20;0.20;;;;;;;23.75;13.72;97783.63;5074868;28;20390;-67
2022/01/06 01:00:03;;;;;;;0.40;0.40;;;;;;;23.74;13.65;97792.94;5076251;28;20078;-67
2022/01/06 01:02:29;;;;;;;0.20;0.20;;;;;;;23.73;13.65;97794.09;5076211;28;20021;-68
2022/01/06 01:04:54;;;;;;;0.30;0.30;;;;;;;23.72;13.87;97787.03;5076151;28;20383;-68
2022/01/06 01:07:20;;;;;;;0.40;0.40;;;;;;;23.72;13.72;97791.69;5076116;28;20471;-67
2022/01/06 01:09:45;;;;;;;0.25;0.25;;;;;;;23.72;13.72;97795.22;5076117;28;20028;-67
2022/01/06 01:12:10;;;;;;;0.30;0.30;;;;;;;23.72;13.73;97797.16;5075900;28;20070;-67
2022/01/06 01:14:55;;;;;;;0.20;0.20;;;;;;;23.72;13.66;97797.94;5075481;28;20467;-68
2022/01/06 01:17:24;;;;;;;0.30;0.30;;;;;;;23.72;13.66;97791.69;5075334;28;20415;-68
2022/01/06 01:19:49;;;;;;;0.30;0.30;;;;;;;23.70;13.93;97796.66;5075858;28;20032;-68
2022/01/06 01:22:15;;;;;;;0.38;0.30;;;;;;;23.70;13.61;97800.22;5076124;28;20036;-67
2022/01/06 01:24:40;;;;;;;0.30;0.30;;;;;;;23.69;13.92;97793.16;5075450;28;20032;-67
2022/01/06 01:27:07;;;;;;;0.32;0.32;;;;;;;23.70;13.76;97797.50;5075753;28;20036;-67
2022/01/06 01:29:40;;;;;;;0.25;0.25;;;;;;;23.71;13.70;97801.78;5074310;28;20017;-68
2022/01/06 01:32:06;;;;;;;0.25;0.25;;;;;;;23.70;13.79;97800.22;5055525;28;20031;-67
2022/01/06 01:34:31;;;;;;;0.20;0.20;;;;;;;23.70;13.65;97804.84;5055352;28;20025;-68
2022/01/06 01:36:56;;;;;;;0.43;0.20;;;;;;;23.70;13.78;97811.13;5055680;28;20025;-68
2022/01/06 01:39:22;;;;;;;0.30;0.30;;;;;;;23.69;13.77;97809.50;5055406;28;20353;-68
2022/01/06 01:41:48;;;;;;;0.30;0.30;;;;;;;23.68;13.89;97818.84;5055636;28;20142;-67
2022/01/06 01:44:16;;;;;;;0.32;0.32;;;;;;;23.68;14.03;97813.41;5055147;28;20123;-68
2022/01/06 01:46:45;;;;;;;0.20;0.20;;;;;;;23.69;13.82;97820.41;5055052;28;20369;-68
2022/01/06 01:49:17;;;;;;;0.30;0.30;;;;;;;23.68;13.97;97805.22;5055363;28;20036;-67
2022/01/06 01:51:43;;;;;;;0.20;0.20;;;;;;;23.68;13.74;97813.41;5054040;28;20033;-68
2022/01/06 01:54:08;;;;;;;0.30;0.30;;;;;;;23.69;13.90;97819.63;5055088;28;20024;-67
2022/01/06 01:56:34;;;;;;;0.28;0.28;;;;;;;23.68;13.87;97815.31;5055159;28;20029;-68
2022/01/06 01:58:59;;;;;;;0.30;0.30;;;;;;;23.67;13.94;97809.06;5054961;28;20033;-67
2022/01/06 02:01:24;;;;;;;0.28;0.28;;;;;;;23.66;13.86;97810.19;5053465;28;20025;-68
2022/01/06 02:03:50;;;;;;;0.17;0.17;;;;;;;23.68;13.87;97812.56;5054862;28;20079;-67
2022/01/06 02:06:15;;;;;;;0.20;0.20;;;;;;;23.68;13.86;97818.03;5054910;28;20127;-67
2022/01/06 02:08:41;;;;;;;0.20;0.20;;;;;;;23.67;13.96;97817.25;5054519;28;20025;-67
2022/01/06 02:11:06;;;;;;;0.20;0.20;;;;;;;23.68;13.87;97812.56;5053592;28;20032;-67
2022/01/06 02:13:31;;;;;;;0.25;0.25;;;;;;;23.69;14.01;97820.41;5054788;28;20028;-67
2022/01/06 02:15:59;;;;;;;0.20;0.20;;;;;;;23.69;13.97;97822.38;5054694;28;20494;-67
2022/01/06 02:18:24;;;;;;;0.20;0.20;;;;;;;23.71;13.88;97823.59;5054382;28;20060;-67
2022/01/06 02:20:50;;;;;;;0.30;0.30;;;;;;;23.73;13.93;97829.53;5054571;28;20035;-67
2022/01/06 02:23:15;;;;;;;0.20;0.20;;;;;;;23.73;13.89;97826.81;5054634;28;20051;-67
2022/01/06 02:25:41;;;;;;;0.20;0.20;;;;;;;23.73;13.66;97835.00;5054532;28;20029;-67
2022/01/06 02:28:06;;;;;;;0.20;0.20;;;;;;;23.75;13.67;97840.09;5054082;28;20375;-67
2022/01/06 02:30:33;;;;;;;0.25;0.25;;;;;;;23.72;13.91;97847.03;5061579;28;20021;-67
2022/01/06 02:33:00;;;;;;;0.20;0.20;;;;;;;23.73;13.82;97843.19;5074036;28;20028;-67
2022/01/06 02:35:26;;;;;;;0.20;0.20;;;;;;;23.70;13.72;97849.28;5074263;28;20044;-67
2022/01/06 02:37:51;;;;;;;0.28;0.28;;;;;;;23.71;13.67;97856.31;5074043;28;20132;-67
2022/01/06 02:40:21;;;;;;;0.20;0.20;;;;;;;23.69;13.75;97855.09;5074292;28;20028;-68
2022/01/06 02:42:50;;;;;;;0.20;0.20;;;;;;;23.68;13.40;97861.66;5074266;28;20054;-68
2022/01/06 02:45:16;;;;;;;0.10;0.10;;;;;;;23.68;13.57;97862.47;5073261;28;20032;-67
2022/01/06 02:47:41;;;;;;;0.17;0.17;;;;;;;23.69;13.47;97866.00;5074191;28;20035;-67
2022/01/06 02:50:08;;;;;;;0.20;0.20;;;;;;;23.68;13.42;97865.19;5073830;28;20476;-68
2022/01/06 02:52:33;;;;;;;0.30;0.30;;;;;;;23.68;13.54;97865.19;5074211;28;20044;-68
2022/01/06 02:54:59;;;;;;;0.20;0.20;;;;;;;23.68;13.34;97872.56;5073732;28;20483;-68
2022/01/06 02:57:24;;;;;;;0.10;0.10;;;;;;;23.68;13.60;97867.94;5072401;28;20032;-68
2022/01/06 02:59:49;;;;;;;0.20;0.20;;;;;;;23.68;13.40;97867.09;5074096;28;20020;-68
2022/01/06 03:02:15;;;;;;;0.20;0.20;;;;;;;23.68;13.26;97875.28;5074004;28;20037;-68
2022/01/06 03:04:40;;;;;;;0.20;0.20;;;;;;;23.67;13.47;97888.13;5073758;28;20033;-68
2022/01/06 03:07:07;;;;;;;0.30;0.30;;;;;;;23.66;13.48;97891.97;5074215;28;20024;-68
2022/01/06 03:09:41;;;;;;;0.20;0.20;;;;;;;23.65;13.16;97895.84;5074356;28;20107;-68
2022/01/06 03:12:24;;;;;;;;;;;;;;;23.90;13.07;97901.41;5074673;28;20103;-65
2022/01/06 03:14:49;;;;;;;0.20;0.20;;;;;;;23.74;12.89;97899.28;5073925;28;19912;-68
2022/01/06 03:17:15;;;;;;;0.20;0.20;;;;;;;23.70;12.77;97901.09;5073751;28;20049;-68
2022/01/06 03:19:40;;;;;;;0.30;0.30;;;;;;;23.66;12.62;97905.59;5076363;28;20029;-67
2022/01/06 03:22:06;;;;;;;0.20;0.20;;;;;;;23.65;12.64;97916.88;5074043;28;20032;-67
2022/01/06 03:24:31;;;;;;;0.20;0.20;;;;;;;23.66;12.40;97919.25;5073197;28;20368;-67
2022/01/06 03:26:56;;;;;;;0.22;0.22;;;;;;;23.65;12.37;97927.78;5072405;28;20020;-67
2022/01/06 03:29:22;;;;;;;0.20;0.20;;;;;;;23.63;12.38;97939.81;5072367;28;20024;-67
2022/01/06 03:31:47;;;;;;;0.20;0.20;;;;;;;23.64;12.05;97943.31;5056879;28;20533;-67
2022/01/06 03:34:13;;;;;;;0.20;0.20;;;;;;;23.62;11.97;97942.88;5052271;28;20025;-67
2022/01/06 03:36:38;;;;;;;0.20;0.20;;;;;;;23.62;11.83;97940.13;5052602;28;20017;-67
2022/01/06 03:39:04;;;;;;;0.32;0.30;;;;;;;23.61;11.88;97943.97;5053953;28;20036;-67
2022/01/06 03:41:29;;;;;;;0.20;0.20;;;;;;;23.61;11.77;97943.97;5053101;28;20474;-67
2022/01/06 03:43:54;;;;;;;0.28;0.28;;;;;;;23.61;11.78;97952.97;5053375;28;20021;-67
2022/01/06 03:46:20;;;;;;;0.30;0.30;;;;;;;23.62;11.56;97960.00;5052984;28;20383;-67
2022/01/06 03:48:45;;;;;;;0.25;0.25;;;;;;;23.61;11.50;97965.78;5052980;28;20025;-67
2022/01/06 03:51:11;;;;;;;0.20;0.20;;;;;;;23.60;11.45;97969.66;5053370;28;20021;-67
2022/01/06 03:53:36;;;;;;;0.30;0.30;;;;;;;23.60;11.53;97969.66;5052892;28;20024;-67
2022/01/06 03:56:02;;;;;;;0.32;0.32;;;;;;;23.61;11.34;97971.25;5051868;28;20032;-68
2022/01/06 03:58:27;;;;;;;0.25;0.25;;;;;;;23.60;11.25;97980.56;5057267;28;20021;-67
2022/01/06 04:00:52;;;;;;;0.20;0.20;;;;;;;23.59;11.14;97981.69;5057010;28;20021;-67
2022/01/06 04:03:18;;;;;;;0.25;0.25;;;;;;;23.60;11.10;97997.72;5057250;28;20041;-67
2022/01/06 04:05:43;;;;;;;0.30;0.30;;;;;;;23.58;11.01;97994.53;5057135;28;20033;-68
2022/01/06 04:08:08;;;;;;;0.30;0.30;;;;;;;23.60;10.85;97996.94;5057168;28;20490;-68
2022/01/06 04:10:34;;;;;;;0.25;0.25;;;;;;;23.59;10.86;98006.22;5055636;28;20464;-68
2022/01/06 04:12:59;;;;;;;0.20;0.20;;;;;;;23.59;10.94;98003.50;5056780;28;20025;-68
2022/01/06 04:15:26;;;;;;;0.30;0.30;;;;;;;23.58;10.73;97999.19;5056535;28;20028;-68
2022/01/06 04:17:52;;;;;;;0.22;0.22;;;;;;;23.57;10.85;97998.38;5056605;28;20048;-67
2022/01/06 04:20:17;;;;;;;0.25;0.25;;;;;;;23.58;10.78;98010.88;5056915;28;20033;-68
2022/01/06 04:22:43;;;;;;;0.35;0.35;;;;;;;23.59;10.61;98017.94;5056859;28;20047;-68
2022/01/06 04:25:09;;;;;;;0.30;0.30;;;;;;;23.59;10.58;98019.84;5056505;28;20116;-68
2022/01/06 04:27:34;;;;;;;0.30;0.30;;;;;;;23.56;10.50;98015.88;5056826;28;20104;-67
2022/01/06 04:30:00;;;;;;;0.57;0.40;;;;;;;23.58;10.66;98018.28;5056327;28;20071;-68
2022/01/06 04:32:25;;;;;;;0.30;0.30;;;;;;;23.58;10.47;98037.38;5076555;28;20032;-67
2022/01/06 04:34:50;;;;;;;0.30;0.30;;;;;;;23.58;10.35;98034.63;5076181;28;20425;-67
2022/01/06 04:37:16;;;;;;;0.25;0.20;;;;;;;23.58;10.34;98037.38;5076547;28;20032;-67
2022/01/06 04:39:41;;;;;;;0.30;0.30;;;;;;;23.58;10.37;98034.63;5076559;28;20020;-67
2022/01/06 04:42:07;;;;;;;0.30;0.30;;;;;;;23.58;10.50;98043.59;5076115;28;20021;-67
2022/01/06 04:44:32;;;;;;;0.30;0.30;;;;;;;23.57;10.48;98044.72;5076373;28;20082;-67
2022/01/06 04:46:57;;;;;;;0.20;0.20;;;;;;;23.58;10.06;98053.72;5076467;28;20024;-68
2022/01/06 04:49:23;;;;;;;0.30;0.30;;;;;;;23.56;10.25;98045.88;5076393;28;20482;-68
2022/01/06 04:51:49;;;;;;;0.30;0.30;;;;;;;23.55;10.09;98059.81;5076205;28;20016;-68
2022/01/06 04:54:14;;;;;;;0.30;0.30;;;;;;;23.56;10.07;98058.69;5076334;28;20028;-67
2022/01/06 04:56:40;;;;;;;0.30;0.30;;;;;;;23.55;10.01;98076.97;5076226;28;20020;-68
2022/01/06 04:59:08;;;;;;;0.30;0.30;;;;;;;23.56;9.87;98083.22;5076291;28;20032;-68
2022/01/06 05:01:33;;;;;;;0.30;0.30;;;;;;;23.56;9.72;98077.75;5076152;28;20036;-68
2022/01/06 05:03:59;;;;;;;0.30;0.30;;;;;;;23.56;9.59;98081.31;5076313;28;20037;-68
2022/01/06 05:06:24;;;;;;;0.28;0.28;;;;;;;23.56;9.76;98088.66;5076197;28;20414;-68
2022/01/06 05:08:50;;;;;;;0.30;0.30;;;;;;;23.56;9.87;98083.22;5075143;28;20024;-68
2022/01/06 05:11:15;;;;;;;0.30;0.30;;;;;;;23.56;9.48;98102.31;5076840;28;20029;-68
2022/01/06 05:13:41;;;;;;;0.30;0.30;;;;;;;23.54;9.61;98102.66;5074654;28;20029;-68
2022/01/06 05:16:06;;;;;;;0.30;0.30;;;;;;;23.56;9.59;98088.66;5075704;28;20463;-67
2022/01/06 05:18:31;;;;;;;0.30;0.30;;;;;;;23.56;9.52;98096.84;5075690;28;20467;-67
2022/01/06 05:20:57;;;;;;;0.32;0.32;;;;;;;23.58;9.60;98113.69;5076051;28;20082;-67
2022/01/06 05:23:22;;;;;;;0.57;0.40;;;;;;;23.57;9.52;98117.53;5075635;28;20386;-67
2022/01/06 05:25:48;;;;;;;0.30;0.30;;;;;;;23.57;9.45;98120.28;5075872;28;20039;-67
2022/01/06 05:28:13;;;;;;;0.20;0.20;;;;;;;23.57;9.33;98120.28;5075821;28;20024;-67
2022/01/06 05:30:38;;;;;;;0.30;0.30;;;;;;;23.56;9.46;98126.84;5071792;28;20025;-67
2022/01/06 05:33:04;;;;;;;0.30;0.30;;;;;;;23.57;9.32;98125.72;5054476;28;20379;-67
2022/01/06 05:35:29;;;;;;;0.30;0.30;;;;;;;23.57;9.46;98133.91;5055093;28;20025;-67
2022/01/06 05:37:55;;;;;;;0.30;0.30;;;;;;;23.56;9.40;98140.47;5055996;28;20037;-67
2022/01/06 05:40:20;;;;;;;0.30;0.30;;;;;;;23.55;9.33;98136.16;5055089;28;20468;-67
2022/01/06 05:42:48;;;;;;;0.40;0.40;;;;;;;23.54;9.30;98140.81;5054973;28;20112;-67
2022/01/06 05:45:13;;;;;;;0.40;0.40;;;;;;;23.58;9.32;98152.66;5054987;28;20021;-67
2022/01/06 05:47:39;;;;;;;0.32;0.32;;;;;;;23.58;9.29;98155.38;5054943;28;20032;-67
2022/01/06 05:50:04;;;;;;;0.52;0.40;;;;;;;23.60;9.12;98155.06;5055196;28;20040;-67
2022/01/06 05:52:30;;;;;;;0.30;0.30;;;;;;;23.62;9.25;98163.69;5055623;28;20595;-67
2022/01/06 05:54:55;;;;;;;0.30;0.30;;;;;;;23.63;9.00;98166.09;5055007;28;20021;-67
2022/01/06 05:57:20;;;;;;;0.20;0.20;;;;;;;23.66;8.92;98166.56;5055016;28;20467;-67
2022/01/06 05:59:46;;;;;;;0.35;0.35;;;;;;;23.68;9.05;98180.66;5054745;28;20460;-67
2022/01/06 06:02:11;;;;;;;0.30;0.30;;;;;;;23.70;8.80;98181.13;5054946;28;20025;-69
2022/01/06 06:04:37;;;;;;;0.30;0.30;;;;;;;23.72;8.79;98193.34;5054956;28;20032;-67
2022/01/06 06:07:02;;;;;;;0.40;0.40;;;;;;;23.71;8.75;98194.44;5054823;28;20028;-67
2022/01/06 06:09:28;;;;;;;0.32;0.32;;;;;;;23.75;9.03;98192.69;5054792;28;20086;-67
2022/01/06 06:11:53;;;;;;;0.30;0.30;;;;;;;23.76;8.65;98205.16;5054921;28;20052;-68
2022/01/06 06:14:19;;;;;;;0.35;0.35;;;;;;;23.76;9.07;98201.66;5053249;28;20460;-67
2022/01/06 06:16:44;;;;;;;0.30;0.30;;;;;;;23.74;9.01;98199.25;5053880;28;20049;-67
2022/01/06 06:19:10;;;;;;;0.30;0.30;;;;;;;23.73;8.93;98208.56;5054491;28;20017;-68
2022/01/06 06:21:35;;;;;;;0.40;0.40;;;;;;;23.72;8.78;98206.97;5054993;28;20029;-68
2022/01/06 06:24:03;;;;;;;0.38;0.38;;;;;;;23.69;8.80;98210.34;5054565;28;20049;-68
2022/01/06 06:26:28;;;;;;;0.32;0.32;;;;;;;23.70;8.71;98222.03;5054376;28;20021;-67
2022/01/06 06:28:53;;;;;;;0.40;0.40;;;;;;;23.70;8.73;98225.59;5054467;28;20044;-67
2022/01/06 06:31:19;;;;;;;0.40;0.40;;;;;;;23.69;8.79;98223.19;5061510;28;20544;-67
2022/01/06 06:33:44;;;;;;;0.40;0.40;;;;;;;23.69;8.47;98234.88;5074013;28;20028;-67
2022/01/06 06:36:09;;;;;;;0.45;0.45;;;;;;;23.67;8.19;98234.41;5073937;28;20036;-67
2022/01/06 06:38:35;;;;;;;0.30;0.30;;;;;;;23.67;8.43;98236.34;5074377;28;20024;-67
2022/01/06 06:41:00;;;;;;;0.30;0.30;;;;;;;23.68;8.42;98241.47;5073494;28;20035;-67
2022/01/06 06:43:26;;;;;;;0.30;0.30;;;;;;;23.65;8.23;98244.84;5074774;28;20360;-67
2022/01/06 06:45:51;;;;;;;0.30;0.30;;;;;;;23.66;8.43;98240.97;5073999;28;20035;-67
2022/01/06 06:48:16;;;;;;;0.32;0.32;;;;;;;23.65;8.30;98255.75;5073735;28;20387;-67
2022/01/06 06:50:42;;;;;;;0.30;0.30;;;;;;;23.65;8.30;98257.69;5074046;28;20027;-68
2022/01/06 06:53:07;;;;;;;0.20;0.20;;;;;;;23.67;8.29;98252.72;5073667;28;20098;-67
2022/01/06 06:55:33;;;;;;;0.45;0.43;;;;;;;23.65;8.39;98261.22;5073877;28;20039;-67
2022/01/06 06:57:58;;;;;;;0.40;0.40;;;;;;;23.65;8.17;98254.97;5073884;28;20021;-67
2022/01/06 07:00:24;;;;;;;0.50;0.30;;;;;;;23.65;8.53;98261.22;5073516;28;20025;-67
2022/01/06 07:02:49;;;;;;;0.30;0.30;;;;;;;23.65;8.22;98265.88;5073912;28;20033;-67
2022/01/06 07:05:17;;;;;;;0.40;0.40;;;;;;;23.65;8.15;98261.22;5073826;28;20028;-67
2022/01/06 07:07:43;;;;;;;0.30;0.30;;;;;;;23.63;8.49;98263.47;5073880;28;20032;-67
2022/01/06 07:10:09;;;;;;;0.40;0.40;;;;;;;23.65;8.26;98266.66;5073460;28;20484;-67
2022/01/06 07:12:41;;;;;;;0.40;0.40;;;;;;;23.64;8.37;98275.97;5073795;28;20085;-67
2022/01/06 07:15:11;;;;;;;0.32;0.32;;;;;;;23.63;8.31;98279.84;5073743;28;20029;-68
2022/01/06 07:17:36;;;;;;;0.30;0.30;;;;;;;23.64;8.37;98286.88;5073272;28;20044;-67
2022/01/06 07:20:02;;;;;;;0.40;0.40;;;;;;;23.63;8.47;98283.34;5073670;28;20048;-67
2022/01/06 07:22:28;;;;;;;0.30;0.30;;;;;;;23.62;8.54;98289.13;5073616;28;20068;-67
2022/01/06 07:24:53;;;;;;;0.30;0.30;;;;;;;23.62;8.22;98284.47;5072323;28;20390;-67
2022/01/06 07:27:18;;;;;;;0.30;0.30;;;;;;;23.63;8.44;98296.97;5073610;28;20028;-67
2022/01/06 07:29:44;;;;;;;0.22;0.22;;;;;;;23.64;8.41;98297.78;5073762;28;20090;-67
2022/01/06 07:32:09;;;;;;;0.30;0.30;;;;;;;23.64;8.14;98297.78;5059733;28;20352;-67
2022/01/06 07:34:35;;;;;;;1.55;0.30;;;;;;;23.62;8.15;98302.75;5053032;28;20029;-67
2022/01/06 07:37:00;;;;;;;0.40;0.40;;;;;;;23.61;8.47;98303.88;5053393;28;20027;-67
2022/01/06 07:39:26;;;;;;;0.40;0.40;;;;;;;23.58;8.58;98308.06;5053122;28;20051;-67
2022/01/06 07:41:52;;;;;;;0.20;0.20;;;;;;;23.56;8.41;98307.59;5053395;28;20021;-67
2022/01/06 07:44:20;;;;;;;0.20;0.20;;;;;;;23.52;8.36;98312.06;5053303;28;20395;-67
2022/01/06 07:46:47;;;;;;;0.30;0.30;;;;;;;23.51;8.22;98313.22;5053379;28;20410;-67
2022/01/06 07:49:12;;;;;;;0.30;0.30;;;;;;;23.52;8.48;98316.72;5053244;28;20499;-66
2022/01/06 07:51:38;;;;;;;0.30;0.30;;;;;;;23.52;8.40;98322.19;5053390;28;20061;-68
2022/01/06 07:54:03;;;;;;;0.30;0.30;;;;;;;23.50;8.28;98325.22;5053108;28;20025;-67
2022/01/06 07:56:28;;;;;;;0.30;0.30;;;;;;;23.49;8.19;98326.38;5053294;28;20395;-67
2022/01/06 07:58:54;;;;;;;0.20;0.20;;;;;;;23.47;8.11;98333.25;5053363;28;20468;-67
2022/01/06 08:01:19;;;;;;;0.30;0.30;;;;;;;23.45;8.22;98328.13;5053226;28;20033;-67
2022/01/06 08:03:45;;;;;;;0.30;0.30;;;;;;;23.47;8.24;98338.72;5053270;28;20525;-67
2022/01/06 08:06:11;;;;;;;0.30;0.30;;;;;;;23.49;8.28;98336.47;5051754;28;20036;-67
2022/01/06 08:08:36;;;;;;;0.30;0.30;;;;;;;23.48;8.13;98349.28;5053291;28;20456;-68
2022/01/06 08:11:02;;;;;;;0.28;0.28;;;;;;;23.47;7.97;98346.88;5052942;28;20036;-67
2022/01/06 08:13:27;;;;;;;0.35;0.35;;;;;;;23.46;8.21;98350.72;5053352;28;20021;-67
2022/01/06 08:15:53;;;;;;;0.28;0.28;;;;;;;23.46;8.05;98348.81;5053157;28;20439;-68
2022/01/06 08:18:18;;;;;;;0.20;0.20;;;;;;;23.46;8.13;98361.63;5052730;28;20479;-67
2022/01/06 08:20:44;;;;;;;0.20;0.20;;;;;;;23.44;8.17;98354.59;5053452;28;20029;-67
2022/01/06 08:23:09;;;;;;;0.38;0.38;;;;;;;23.46;7.91;98359.72;5053388;28;20033;-67
2022/01/06 08:25:35;;;;;;;0.30;0.30;;;;;;;23.46;8.08;98373.34;5052776;28;20482;-66
2022/01/06 08:28:00;;;;;;;0.20;0.20;;;;;;;23.46;7.97;98377.97;5052737;28;20029;-67
2022/01/06 08:30:26;;;;;;;0.30;0.30;;;;;;;23.44;8.00;98379.13;5052985;28;20022;-67
2022/01/06 08:32:52;;;;;;;0.63;0.40;;;;;;;23.47;7.96;98385.84;5069613;28;20383;-66
2022/01/06 08:35:18;;;;;;;0.30;0.30;;;;;;;23.46;8.15;98386.16;5072829;28;20100;-67
2022/01/06 08:37:43;;;;;;;0.30;0.30;;;;;;;23.46;8.08;98397.06;5072898;28;20029;-67
2022/01/06 08:40:09;;;;;;;0.30;0.30;;;;;;;23.44;8.02;98398.22;5072803;28;20094;-66
2022/01/06 08:42:34;;;;;;;0.30;0.30;;;;;;;23.46;7.98;98402.53;5073885;28;20465;-66
2022/01/06 08:45:00;;;;;;;0.30;0.30;;;;;;;23.46;7.84;98408.78;5076396;28;20425;-67
2022/01/06 08:47:25;;;;;;;0.40;0.40;;;;;;;23.46;8.05;98399.78;5076377;28;20028;-67
2022/01/06 08:49:51;;;;;;;0.20;0.20;;;;;;;23.46;8.08;98413.41;5076460;28;20374;-67
2022/01/06 08:52:16;;;;;;;0.28;0.28;;;;;;;23.45;8.16;98412.63;5076041;28;20043;-67
2022/01/06 08:54:41;;;;;;;0.30;0.30;;;;;;;23.46;8.13;98411.50;5075932;28;20035;-68
2022/01/06 08:57:07;;;;;;;0.30;0.30;;;;;;;23.46;7.95;98416.16;5076787;28;20033;-67
2022/01/06 08:59:32;;;;;;;0.30;0.30;;;;;;;23.44;7.97;98422.75;5075120;28;20082;-67
2022/01/06 09:01:58;;;;;;;0.40;0.40;;;;;;;23.46;8.17;98424.31;5076291;28;20029;-67
2022/01/06 09:04:23;;;;;;;0.22;0.22;;;;;;;23.44;8.03;98422.75;5076123;28;20074;-67
2022/01/06 09:06:49;;;;;;;0.30;0.30;;;;;;;23.44;7.91;98420.00;5076030;28;20405;-67
2022/01/06 09:09:15;;;;;;;0.28;0.28;;;;;;;23.45;7.92;98412.63;5075756;28;20025;-68
2022/01/06 09:11:41;;;;;;;0.20;0.20;;;;;;;23.46;8.11;98418.88;5075695;28;20036;-67
2022/01/06 09:14:06;;;;;;;0.20;0.20;;;;;;;23.46;7.99;98416.97;5075549;28;20020;-68
2022/01/06 09:16:31;;;;;;;0.20;0.20;;;;;;;23.44;8.11;98433.66;5075636;28;20056;-67
2022/01/06 09:18:57;;;;;;;0.22;0.22;;;;;;;23.46;8.31;98433.31;5075766;28;20381;-68
2022/01/06 09:21:24;;;;;;;0.30;0.30;;;;;;;23.48;8.22;98441.19;5076026;28;20439;-67
2022/01/06 09:23:50;;;;;;;0.30;0.30;;;;;;;23.47;7.93;98442.28;5075439;28;20060;-67
2022/01/06 09:26:16;;;;;;;0.30;0.30;;;;;;;23.48;8.03;98452.09;5075675;28;20121;-67
2022/01/06 09:28:41;;;;;;;0.25;0.25;;;;;;;23.48;8.17;98455.59;5075798;28;20021;-67
2022/01/06 09:31:07;;;;;;;0.30;0.30;;;;;;;23.50;8.10;98468.91;5074880;28;20032;-67
2022/01/06 09:33:32;;;;;;;0.30;0.30;;;;;;;23.51;7.92;98468.59;5055648;28;20032;-67
2022/01/06 09:35:58;;;;;;;0.20;0.20;;;;;;;23.52;8.32;98472.13;5053893;28;20033;-68
2022/01/06 09:38:23;;;;;;;0.30;0.30;;;;;;;23.50;7.99;98475.16;5055441;28;20021;-67
2022/01/06 09:40:48;;;;;;;0.30;0.30;;;;;;;23.50;7.93;98485.28;5055053;28;20489;-67
2022/01/06 09:43:14;;;;;;;0.30;0.30;;;;;;;23.50;8.19;98491.53;5055344;28;20025;-67
2022/01/06 09:45:40;;;;;;;0.30;0.30;;;;;;;23.50;8.50;98493.47;5053828;28;20043;-67
2022/01/06 09:48:06;;;;;;;0.40;0.40;;;;;;;23.48;8.26;98492.97;5055496;28;20024;-67
2022/01/06 09:50:32;;;;;;;0.28;0.28;;;;;;;23.49;8.16;98497.28;5055176;28;20171;-67
2022/01/06 09:52:57;;;;;;;0.30;0.30;;;;;;;23.47;8.24;98494.09;5054011;28;20100;-68
2022/01/06 09:55:23;;;;;;;0.28;0.28;;;;;;;23.49;8.15;98497.28;5054608;28;20051;-68
2022/01/06 09:57:59;;;;;;;0.55;0.30;;;;;;;23.50;8.18;98499.69;5054734;28;20471;-68
2022/01/06 10:00:26;;;;;;;0.20;0.20;;;;;;;23.50;7.97;98509.81;5054723;28;20032;-68
2022/01/06 10:02:53;;;;;;;0.20;0.20;;;;;;;23.49;8.05;98513.66;5055021;28;20024;-67
2022/01/06 10:05:18;;;;;;;0.20;0.20;;;;;;;23.49;8.04;98513.66;5054647;28;20033;-68
2022/01/06 10:07:44;;;;;;;0.30;0.30;;;;;;;23.49;8.17;98513.66;5055036;28;20036;-68
2022/01/06 10:10:11;;;;;;;0.20;0.20;;;;;;;23.49;8.03;98513.66;5054780;28;20029;-67
2022/01/06 10:12:39;;;;;;;0.30;0.30;;;;;;;23.48;8.06;98509.34;5053290;28;20052;-67
2022/01/06 10:15:23;;;;;;;0.30;0.30;;;;;;;23.51;8.16;98519.59;5054395;28;20474;-67
2022/01/06 10:17:48;;;;;;;0.30;0.30;;;;;;;23.50;8.12;98516.06;5054299;28;20048;-67
2022/01/06 10:20:16;;;;;;;0.30;0.30;;;;;;;23.50;8.34;98523.44;5054412;28;20404;-67
2022/01/06 10:22:55;;;;;;;0.20;0.20;;;;;;;23.51;8.32;98519.59;5054521;28;20036;-68
2022/01/06 10:25:22;;;;;;;0.30;0.30;;;;;;;23.50;8.18;98523.44;5054245;28;20459;-68
2022/01/06 10:27:49;;;;;;;0.20;0.20;;;;;;;23.48;8.25;98522.97;5054522;28;20060;-67
2022/01/06 10:30:15;;;;;;;0.32;0.32;;;;;;;23.48;8.15;98531.16;5054271;28;20048;-67
2022/01/06 10:32:40;;;;;;;0.20;0.20;;;;;;;23.49;8.22;98536.28;5065953;28;20028;-67
2022/01/06 10:35:07;;;;;;;0.30;0.30;;;;;;;23.49;8.31;98519.09;5074351;28;20038;-68
2022/01/06 10:37:38;;;;;;;0.22;0.22;;;;;;;23.47;8.18;98524.88;5072702;28;20052;-68
2022/01/06 10:40:09;;;;;;;0.30;0.30;;;;;;;23.47;8.39;98527.59;5074250;28;20028;-68
2022/01/06 10:42:35;;;;;;;0.25;0.25;;;;;;;23.45;8.22;98518.94;5074178;28;20020;-68
2022/01/06 10:45:10;;;;;;;0.25;0.25;;;;;;;23.46;8.24;98539.63;5073725;28;20029;-68
2022/01/06 10:47:52;;;;;;;0.20;0.20;;;;;;;23.47;8.37;98545.88;5074198;28;20025;-68
2022/01/06 10:50:25;;;;;;;0.38;0.38;;;;;;;23.48;8.22;98539.31;5073759;28;20080;-68
2022/01/06 10:52:51;;;;;;;0.20;0.20;;;;;;;23.48;8.23;98534.66;5074016;28;20043;-68
2022/01/06 10:55:17;;;;;;;0.20;0.20;;;;;;;23.47;8.39;98526.81;5073830;28;20024;-68
2022/01/06 10:58:09;;;;;;;0.30;0.28;;;;;;;23.53;8.55;98541.91;5073749;28;20390;-67
2022/01/06 11:01:01;;;;;;;0.20;0.20;;;;;;;23.55;8.50;98545.91;5031748;28;20049;-68
2022/01/06 11:03:35;;;;;;;0.30;0.30;;;;;;;23.48;8.38;98544.78;5029209;28;20200;-67
2022/01/06 11:06:02;;;;;;;0.20;0.20;;;;;;;23.48;8.46;98539.31;5030931;28;20049;-66
2022/01/06 11:08:29;;;;;;;0.20;0.20;;;;;;;23.47;8.38;98543.16;5031475;28;20487;-66
2022/01/06 11:13:44;;;;;;;0.20;0.20;;;;;;;23.47;8.26;98549.41;5031577;28;20033;-68
2022/01/06 11:16:12;;;;;;;0.22;0.22;;;;;;;23.47;8.46;98559.50;5031174;28;20048;-68
2022/01/06 11:18:39;;;;;;;0.30;0.30;;;;;;;23.47;8.43;98545.88;5031610;28;20041;-68
2022/01/06 11:21:15;;;;;;;0.28;0.28;;;;;;;23.46;8.25;98553.28;5031382;28;20108;-68
2022/01/06 11:23:41;;;;;;;0.20;0.20;;;;;;;23.46;8.41;98552.44;5031381;28;20099;-68
2022/01/06 11:26:07;;;;;;;0.30;0.30;;;;;;;23.45;8.42;98554.38;5031338;28;20459;-67
2022/01/06 11:28:33;;;;;;;0.30;0.30;;;;;;;23.43;8.44;98560.16;5031228;28;20125;-68
2022/01/06 11:31:21;;;;;;;0.20;0.20;;;;;;;23.44;8.24;98556.31;5031651;28;20124;-67
2022/01/06 11:33:48;;;;;;;0.20;0.20;;;;;;;23.47;8.49;98554.84;5012460;28;20168;-67
2022/01/06 11:36:31;;;;;;;0.20;0.20;;;;;;;23.48;8.42;98555.69;5013320;28;20053;-67
2022/01/06 11:39:02;;;;;;;0.20;0.20;;;;;;;23.48;8.37;98559.19;5054198;28;20033;-67
2022/01/06 11:41:46;;;;;;;0.20;0.20;;;;;;;23.52;8.38;98559.38;5052906;28;20053;-67
2022/01/06 11:44:16;;;;;;;0.20;0.20;;;;;;;23.47;8.38;98554.84;5053797;28;20029;-67
2022/01/06 11:46:42;;;;;;;0.30;0.20;;;;;;;23.46;8.43;98552.44;5053954;28;20262;-68
2022/01/06 11:49:07;;;;;;;0.10;0.10;;;;;;;23.47;8.38;98564.97;5053592;28;20033;-67